sensor_id;sensor_type;location;lat;lon;timestamp;pressure;altitude;pressure_sealevel;temperature;humidity
9325;BME280;4701;51.566;6.776;2023-04-28T07:03:39;100747.59;;;9.69;78.93
9325;BME280;4701;51.566;6.776;2023-04-28T07:06:41;100746.00;;;9.78;79.86
9325;BME280;4701;51.566;6.776;2023-04-28T07:09:43;100739.81;;;9.88;79.86
9325;BME280;4701;51.566;6.776;2023-04-28T07:12:45;100730.66;;;9.99;80.84
9325;BME280;4701;51.566;6.776;2023-04-28T07:15:47;100736.16;;;10.09;80.41
9325;BME280;4701;51.566;6.776;2023-04-28T07:18:50;100727.00;;;10.20;80.34
9325;BME280;4701;51.566;6.776;2023-04-28T07:21:52;100736.84;;;10.32;81.19
9325;BME280;4701;51.566;6.776;2023-04-28T07:24:54;100734.75;;;10.44;80.54
9325;BME280;4701;51.566;6.776;2023-04-28T07:27:56;100742.16;;;10.53;80.96
9325;BME280;4701;51.566;6.776;2023-04-28T07:30:58;100744.63;;;10.65;80.86
9325;BME280;4701;51.566;6.776;2023-04-28T07:34:01;100741.13;;;10.75;80.45
9325;BME280;4701;51.566;6.776;2023-04-28T07:37:03;100744.69;;;10.85;80.31
9325;BME280;4701;51.566;6.776;2023-04-28T07:40:05;100745.56;;;10.96;80.76
9325;BME280;4701;51.566;6.776;2023-04-28T07:43:07;100745.56;;;11.06;81.15
9325;BME280;4701;51.566;6.776;2023-04-28T07:46:09;100748.31;;;11.16;81.41
9325;BME280;4701;51.566;6.776;2023-04-28T07:49:14;100748.59;;;11.25;81.33
9325;BME280;4701;51.566;6.776;2023-04-28T07:52:16;100757.06;;;11.33;81.32
9325;BME280;4701;51.566;6.776;2023-04-28T07:55:17;100758.44;;;11.41;81.54
9325;BME280;4701;51.566;6.776;2023-04-28T07:58:19;100755.72;;;11.51;81.33
9325;BME280;4701;51.566;6.776;2023-04-28T08:01:21;100750.53;;;11.60;81.39
9325;BME280;4701;51.566;6.776;2023-04-28T08:04:24;100749.16;;;11.67;81.55
9325;BME280;4701;51.566;6.776;2023-04-28T08:07:27;100743.41;;;11.74;81.54
9325;BME280;4701;51.566;6.776;2023-04-28T08:10:29;100749.75;;;11.80;80.85
9325;BME280;4701;51.566;6.776;2023-04-28T08:13:31;100733.91;;;11.87;80.98
9325;BME280;4701;51.566;6.776;2023-04-28T08:16:33;100735.53;;;11.93;81.12
9325;BME280;4701;51.566;6.776;2023-04-28T08:19:39;100731.41;;;12.00;81.43
9325;BME280;4701;51.566;6.776;2023-04-28T08:22:41;100733.56;;;12.08;81.41
9325;BME280;4701;51.566;6.776;2023-04-28T08:25:43;100728.94;;;12.14;81.38
9325;BME280;4701;51.566;6.776;2023-04-28T08:28:44;100723.44;;;12.19;81.43
9325;BME280;4701;51.566;6.776;2023-04-28T08:31:46;100734.06;;;12.26;81.19
9325;BME280;4701;51.566;6.776;2023-04-28T08:34:49;100734.06;;;12.31;80.94
9325;BME280;4701;51.566;6.776;2023-04-28T08:37:51;100734.88;;;12.36;80.92
9325;BME280;4701;51.566;6.776;2023-04-28T08:40:53;100721.72;;;12.43;81.19
9325;BME280;4701;51.566;6.776;2023-04-28T08:43:55;100723.34;;;12.49;81.10
9325;BME280;4701;51.566;6.776;2023-04-28T08:46:58;100721.41;;;12.55;81.32
9325;BME280;4701;51.566;6.776;2023-04-28T08:50:04;100721.63;;;12.64;81.31
9325;BME280;4701;51.566;6.776;2023-04-28T08:53:06;100725.97;;;12.70;81.57
9325;BME280;4701;51.566;6.776;2023-04-28T08:56:09;100719.41;;;12.76;81.64
9325;BME280;4701;51.566;6.776;2023-04-28T08:59:13;100722.66;;;12.83;81.56
9325;BME280;4701;51.566;6.776;2023-04-28T09:02:18;100724.25;;;12.89;81.49
9325;BME280;4701;51.566;6.776;2023-04-28T09:05:22;100719.28;;;12.96;81.31
9325;BME280;4701;51.566;6.776;2023-04-28T09:08:24;100727.97;;;13.03;81.49
9325;BME280;4701;51.566;6.776;2023-04-28T09:11:26;100713.19;;;13.09;81.57
9325;BME280;4701;51.566;6.776;2023-04-28T09:14:28;100712.34;;;13.14;81.68
9325;BME280;4701;51.566;6.776;2023-04-28T09:17:30;100721.34;;;13.19;81.71
9325;BME280;4701;51.566;6.776;2023-04-28T09:20:35;100716.13;;;13.23;81.56
9325;BME280;4701;51.566;6.776;2023-04-28T09:23:46;100716.06;;;13.28;81.63
9325;BME280;4701;51.566;6.776;2023-04-28T09:26:48;100726.47;;;13.31;81.13
9325;BME280;4701;51.566;6.776;2023-04-28T09:29:52;100720.44;;;13.34;81.10
9325;BME280;4701;51.566;6.776;2023-04-28T09:33:03;100716.28;;;13.37;81.15
9325;BME280;4701;51.566;6.776;2023-04-28T09:36:06;100705.59;;;13.40;81.12
9325;BME280;4701;51.566;6.776;2023-04-28T09:39:08;100714.84;;;13.44;80.87
9325;BME280;4701;51.566;6.776;2023-04-28T09:42:29;100718.38;;;13.50;81.06
9325;BME280;4701;51.566;6.776;2023-04-28T09:45:38;100722.47;;;13.52;80.94
9325;BME280;4701;51.566;6.776;2023-04-28T09:48:41;100719.97;;;13.56;81.09
9325;BME280;4701;51.566;6.776;2023-04-28T09:51:44;100715.56;;;13.60;81.25
9325;BME280;4701;51.566;6.776;2023-04-28T09:54:48;100709.50;;;13.63;81.31
9325;BME280;4701;51.566;6.776;2023-04-28T09:57:53;100706.72;;;13.68;81.51
9325;BME280;4701;51.566;6.776;2023-04-28T10:00:57;100699.00;;;13.70;81.70
9325;BME280;4701;51.566;6.776;2023-04-28T10:03:59;100705.03;;;13.72;81.75
9325;BME280;4701;51.566;6.776;2023-04-28T10:07:03;100700.91;;;13.75;81.85
9325;BME280;4701;51.566;6.776;2023-04-28T10:14:02;100698.38;;;13.78;82.01
9325;BME280;4701;51.566;6.776;2023-04-28T10:17:04;100692.34;;;13.81;82.45
9325;BME280;4701;51.566;6.776;2023-04-28T10:20:07;100694.50;;;13.84;82.33
9325;BME280;4701;51.566;6.776;2023-04-28T10:23:46;100704.88;;;13.87;82.71
9325;BME280;4701;51.566;6.776;2023-04-28T10:27:05;100695.56;;;13.88;82.62
9325;BME280;4701;51.566;6.776;2023-04-28T10:30:11;100702.38;;;13.91;82.78
9325;BME280;4701;51.566;6.776;2023-04-28T10:33:23;100693.88;;;13.92;82.88
9325;BME280;4701;51.566;6.776;2023-04-28T10:36:47;100697.44;;;13.93;82.61
9325;BME280;4701;51.566;6.776;2023-04-28T10:40:31;100695.53;;;13.93;82.64
9325;BME280;4701;51.566;6.776;2023-04-28T10:43:35;100690.53;;;13.95;82.67
9325;BME280;4701;51.566;6.776;2023-04-28T10:46:59;100690.53;;;13.95;82.66
9325;BME280;4701;51.566;6.776;2023-04-28T10:50:08;100691.91;;;13.98;82.70
9325;BME280;4701;51.566;6.776;2023-04-28T10:53:10;100701.75;;;13.99;82.98
9325;BME280;4701;51.566;6.776;2023-04-28T10:56:14;100702.00;;;14.02;83.24
9325;BME280;4701;51.566;6.776;2023-04-28T10:59:25;100695.38;;;14.03;83.28
9325;BME280;4701;51.566;6.776;2023-04-28T11:02:45;100690.44;;;14.06;83.13
9325;BME280;4701;51.566;6.776;2023-04-28T11:09:47;100692.59;;;14.09;83.34
9325;BME280;4701;51.566;6.776;2023-04-28T11:13:26;100695.28;;;14.14;84.10
9325;BME280;4701;51.566;6.776;2023-04-28T11:16:31;100700.19;;;14.17;84.07
9325;BME280;4701;51.566;6.776;2023-04-28T11:19:34;100701.00;;;14.17;84.42
9325;BME280;4701;51.566;6.776;2023-04-28T11:22:37;100701.53;;;14.19;84.79
9325;BME280;4701;51.566;6.776;2023-04-28T11:25:54;100703.69;;;14.22;84.91
9325;BME280;4701;51.566;6.776;2023-04-28T11:28:57;100693.25;;;14.24;85.37
9325;BME280;4701;51.566;6.776;2023-04-28T11:31:59;100695.41;;;14.27;85.64
9325;BME280;4701;51.566;6.776;2023-04-28T11:35:01;100694.00;;;14.30;85.92
9325;BME280;4701;51.566;6.776;2023-04-28T11:38:08;100707.13;;;14.33;86.49
9325;BME280;4701;51.566;6.776;2023-04-28T11:41:11;100704.09;;;14.34;87.47
9325;BME280;4701;51.566;6.776;2023-04-28T11:44:15;100703.00;;;14.35;88.32
9325;BME280;4701;51.566;6.776;2023-04-28T11:47:27;100699.16;;;14.36;88.91
9325;BME280;4701;51.566;6.776;2023-04-28T11:51:05;100709.78;;;14.38;89.03
9325;BME280;4701;51.566;6.776;2023-04-28T11:54:07;100696.34;;;14.42;89.46
9325;BME280;4701;51.566;6.776;2023-04-28T11:57:16;100700.94;;;14.46;89.89
9325;BME280;4701;51.566;6.776;2023-04-28T12:00:21;100700.91;;;14.51;90.00
9325;BME280;4701;51.566;6.776;2023-04-28T12:03:23;100701.13;;;14.55;89.99
9325;BME280;4701;51.566;6.776;2023-04-28T12:06:25;100704.09;;;14.58;90.23
9325;BME280;4701;51.566;6.776;2023-04-28T12:09:28;100696.13;;;14.62;90.39
9325;BME280;4701;51.566;6.776;2023-04-28T12:12:30;100699.06;;;14.65;90.36
9325;BME280;4701;51.566;6.776;2023-04-28T12:15:40;100701.75;;;14.70;90.31
9325;BME280;4701;51.566;6.776;2023-04-28T12:18:57;100705.00;;;14.72;90.67
9325;BME280;4701;51.566;6.776;2023-04-28T12:22:01;100693.44;;;14.75;90.64
9325;BME280;4701;51.566;6.776;2023-04-28T12:25:04;100699.47;;;14.77;90.65
9325;BME280;4701;51.566;6.776;2023-04-28T12:28:07;100698.56;;;14.82;90.86
9325;BME280;4701;51.566;6.776;2023-04-28T12:31:11;100704.56;;;14.84;90.86
9325;BME280;4701;51.566;6.776;2023-04-28T12:34:13;100695.75;;;14.87;90.88
9325;BME280;4701;51.566;6.776;2023-04-28T12:37:15;100695.97;;;14.91;90.58
9325;BME280;4701;51.566;6.776;2023-04-28T12:40:17;100694.56;;;14.93;90.67
9325;BME280;4701;51.566;6.776;2023-04-28T12:43:19;100690.44;;;14.96;90.34
9325;BME280;4701;51.566;6.776;2023-04-28T12:46:23;100675.50;;;15.02;90.06
9325;BME280;4701;51.566;6.776;2023-04-28T12:49:26;100684.75;;;15.06;90.21
9325;BME280;4701;51.566;6.776;2023-04-28T12:52:28;100669.88;;;15.12;90.17
9325;BME280;4701;51.566;6.776;2023-04-28T12:55:33;100672.50;;;15.17;89.94
9325;BME280;4701;51.566;6.776;2023-04-28T12:58:34;100670.50;;;15.23;89.61
9325;BME280;4701;51.566;6.776;2023-04-28T13:01:38;100678.38;;;15.29;89.34
9325;BME280;4701;51.566;6.776;2023-04-28T13:04:40;100672.78;;;15.34;88.94
9325;BME280;4701;51.566;6.776;2023-04-28T13:07:45;100671.91;;;15.39;88.78
9325;BME280;4701;51.566;6.776;2023-04-28T13:10:46;100676.47;;;15.43;88.10
9325;BME280;4701;51.566;6.776;2023-04-28T13:13:48;100671.50;;;15.45;87.84
9325;BME280;4701;51.566;6.776;2023-04-28T13:16:52;100671.22;;;15.47;87.17
9325;BME280;4701;51.566;6.776;2023-04-28T13:19:54;100665.91;;;15.50;86.66
9325;BME280;4701;51.566;6.776;2023-04-28T13:22:56;100658.19;;;15.52;86.29
9325;BME280;4701;51.566;6.776;2023-04-28T13:25:57;100661.75;;;15.53;86.09
9325;BME280;4701;51.566;6.776;2023-04-28T13:29:00;100653.53;;;15.53;86.08
9325;BME280;4701;51.566;6.776;2023-04-28T13:32:05;100657.63;;;15.56;85.79
9325;BME280;4701;51.566;6.776;2023-04-28T13:35:07;100652.63;;;15.58;85.88
9325;BME280;4701;51.566;6.776;2023-04-28T13:38:09;100640.53;;;15.59;85.57
9325;BME280;4701;51.566;6.776;2023-04-28T13:41:11;100638.31;;;15.61;85.62
9325;BME280;4701;51.566;6.776;2023-04-28T13:44:12;100644.03;;;15.64;85.41
9325;BME280;4701;51.566;6.776;2023-04-28T13:47:16;100640.13;;;15.65;85.36
9325;BME280;4701;51.566;6.776;2023-04-28T13:50:18;100637.59;;;15.69;85.14
9325;BME280;4701;51.566;6.776;2023-04-28T13:53:19;100640.88;;;15.71;85.12
9325;BME280;4701;51.566;6.776;2023-04-28T13:56:21;100631.22;;;15.73;84.96
9325;BME280;4701;51.566;6.776;2023-04-28T13:59:23;100630.06;;;15.74;84.65
9325;BME280;4701;51.566;6.776;2023-04-28T14:02:27;100630.59;;;15.76;84.41
9325;BME280;4701;51.566;6.776;2023-04-28T14:05:29;100633.03;;;15.78;84.35
9325;BME280;4701;51.566;6.776;2023-04-28T14:08:31;100636.59;;;15.78;84.33
9325;BME280;4701;51.566;6.776;2023-04-28T14:11:33;100637.41;;;15.79;84.19
9325;BME280;4701;51.566;6.776;2023-04-28T14:14:35;100633.56;;;15.80;84.20
9325;BME280;4701;51.566;6.776;2023-04-28T14:17:38;100637.59;;;15.82;84.07
9325;BME280;4701;51.566;6.776;2023-04-28T14:20:40;100641.16;;;15.83;84.46
9325;BME280;4701;51.566;6.776;2023-04-28T14:23:42;100631.00;;;15.83;84.72
9325;BME280;4701;51.566;6.776;2023-04-28T14:26:44;100628.47;;;15.87;84.75
9325;BME280;4701;51.566;6.776;2023-04-28T14:29:46;100626.22;;;15.89;84.87
9325;BME280;4701;51.566;6.776;2023-04-28T14:32:50;100628.69;;;15.91;84.87
9325;BME280;4701;51.566;6.776;2023-04-28T14:35:52;100634.97;;;15.91;84.73
9325;BME280;4701;51.566;6.776;2023-04-28T14:38:54;100640.97;;;15.93;84.48
9325;BME280;4701;51.566;6.776;2023-04-28T14:41:55;100631.63;;;15.94;84.34
9325;BME280;4701;51.566;6.776;2023-04-28T14:44:57;100642.31;;;15.96;84.24
9325;BME280;4701;51.566;6.776;2023-04-28T14:48:00;100640.09;;;15.98;84.10
9325;BME280;4701;51.566;6.776;2023-04-28T14:51:02;100646.06;;;16.00;84.20
9325;BME280;4701;51.566;6.776;2023-04-28T14:54:05;100638.63;;;16.00;84.17
9325;BME280;4701;51.566;6.776;2023-04-28T14:57:08;100649.63;;;16.00;84.10
9325;BME280;4701;51.566;6.776;2023-04-28T15:00:11;100680.69;;;16.01;84.09
9325;BME280;4701;51.566;6.776;2023-04-28T15:03:14;100666.94;;;16.01;84.16
9325;BME280;4701;51.566;6.776;2023-04-28T15:06:16;100671.31;;;16.02;84.07
9325;BME280;4701;51.566;6.776;2023-04-28T15:09:18;100670.00;;;15.99;84.36
9325;BME280;4701;51.566;6.776;2023-04-28T15:12:20;100689.22;;;15.99;83.94
9325;BME280;4701;51.566;6.776;2023-04-28T15:15:21;100698.72;;;15.93;83.67
9325;BME280;4701;51.566;6.776;2023-04-28T15:18:25;100697.41;;;15.91;83.48
9325;BME280;4701;51.566;6.776;2023-04-28T15:21:28;100696.13;;;15.83;83.09
9325;BME280;4701;51.566;6.776;2023-04-28T15:24:33;100702.56;;;15.78;82.88
9325;BME280;4701;51.566;6.776;2023-04-28T15:27:35;100710.91;;;15.73;82.57
9325;BME280;4701;51.566;6.776;2023-04-28T15:30:37;100710.16;;;15.68;81.95
9325;BME280;4701;51.566;6.776;2023-04-28T15:33:40;100700.66;;;15.60;81.61
9325;BME280;4701;51.566;6.776;2023-04-28T15:36:42;100701.59;;;15.56;81.61
9325;BME280;4701;51.566;6.776;2023-04-28T15:39:44;100713.94;;;15.53;81.34
9325;BME280;4701;51.566;6.776;2023-04-28T15:42:46;100712.09;;;15.48;81.09
9325;BME280;4701;51.566;6.776;2023-04-28T15:45:50;100712.09;;;15.48;80.74
9325;BME280;4701;51.566;6.776;2023-04-28T15:48:54;100711.78;;;15.50;80.30
9325;BME280;4701;51.566;6.776;2023-04-28T15:51:56;100720.94;;;15.45;79.97
9325;BME280;4701;51.566;6.776;2023-04-28T15:54:58;100724.28;;;15.42;80.20
9325;BME280;4701;51.566;6.776;2023-04-28T15:58:00;100722.66;;;15.41;80.15
9325;BME280;4701;51.566;6.776;2023-04-28T16:01:03;100721.00;;;15.40;79.90
9325;BME280;4701;51.566;6.776;2023-04-28T16:04:06;100727.66;;;15.39;79.87
9325;BME280;4701;51.566;6.776;2023-04-28T16:07:08;100724.38;;;15.37;79.98
9325;BME280;4701;51.566;6.776;2023-04-28T16:10:11;100735.06;;;15.39;80.29
9325;BME280;4701;51.566;6.776;2023-04-28T16:13:13;100724.38;;;15.37;80.21
9325;BME280;4701;51.566;6.776;2023-04-28T16:16:15;100723.84;;;15.35;80.18
9325;BME280;4701;51.566;6.776;2023-04-28T16:19:18;100726.81;;;15.39;80.39
9325;BME280;4701;51.566;6.776;2023-04-28T16:22:21;100721.34;;;15.39;80.26
9325;BME280;4701;51.566;6.776;2023-04-28T16:25:23;100744.13;;;15.39;80.09
9325;BME280;4701;51.566;6.776;2023-04-28T16:28:25;100733.94;;;15.40;80.21
9325;BME280;4701;51.566;6.776;2023-04-28T16:31:30;100733.44;;;15.38;80.50
9325;BME280;4701;51.566;6.776;2023-04-28T16:34:33;100740.03;;;15.37;80.48
9325;BME280;4701;51.566;6.776;2023-04-28T16:37:35;100740.03;;;15.37;80.67
9325;BME280;4701;51.566;6.776;2023-04-28T16:40:38;100737.59;;;15.35;80.74
9325;BME280;4701;51.566;6.776;2023-04-28T16:43:40;100739.50;;;15.35;80.95
9325;BME280;4701;51.566;6.776;2023-04-28T16:46:42;100745.28;;;15.33;81.22
9325;BME280;4701;51.566;6.776;2023-04-28T16:49:45;100744.47;;;15.33;81.45
9325;BME280;4701;51.566;6.776;2023-04-28T16:52:47;100746.72;;;15.31;81.72
9325;BME280;4701;51.566;6.776;2023-04-28T16:55:50;100738.50;;;15.31;81.98
9325;BME280;4701;51.566;6.776;2023-04-28T16:58:51;100743.75;;;15.27;82.16
9325;BME280;4701;51.566;6.776;2023-04-28T17:01:53;100749.81;;;15.24;81.93
9325;BME280;4701;51.566;6.776;2023-04-28T17:04:57;100756.44;;;15.23;82.10
9325;BME280;4701;51.566;6.776;2023-04-28T17:07:58;100743.31;;;15.20;81.64
9325;BME280;4701;51.566;6.776;2023-04-28T17:11:03;100753.47;;;15.20;82.10
9325;BME280;4701;51.566;6.776;2023-04-28T17:14:05;100751.03;;;15.18;82.18
9325;BME280;4701;51.566;6.776;2023-04-28T17:17:08;100754.34;;;15.15;82.23
9325;BME280;4701;51.566;6.776;2023-04-28T17:20:12;100746.72;;;15.12;82.35
9325;BME280;4701;51.566;6.776;2023-04-28T17:23:16;100751.69;;;15.10;82.48
9325;BME280;4701;51.566;6.776;2023-04-28T17:26:18;100753.91;;;15.08;82.53
9325;BME280;4701;51.566;6.776;2023-04-28T17:29:20;100759.69;;;15.06;82.25
9325;BME280;4701;51.566;6.776;2023-04-28T17:32:24;100766.59;;;15.04;82.33
9325;BME280;4701;51.566;6.776;2023-04-28T17:35:28;100756.75;;;15.03;82.21
9325;BME280;4701;51.566;6.776;2023-04-28T17:38:30;100754.28;;;15.01;82.43
9325;BME280;4701;51.566;6.776;2023-04-28T17:41:32;100767.47;;;14.99;82.28
9325;BME280;4701;51.566;6.776;2023-04-28T17:44:34;100774.91;;;14.99;82.31
9325;BME280;4701;51.566;6.776;2023-04-28T17:47:35;100770.84;;;14.96;82.48
9325;BME280;4701;51.566;6.776;2023-04-28T17:50:39;100770.84;;;14.96;82.88
9325;BME280;4701;51.566;6.776;2023-04-28T17:53:40;100771.13;;;14.95;82.84
9325;BME280;4701;51.566;6.776;2023-04-28T17:56:42;100782.38;;;14.93;83.29
9325;BME280;4701;51.566;6.776;2023-04-28T17:59:48;100779.94;;;14.92;83.33
9325;BME280;4701;51.566;6.776;2023-04-28T18:02:50;100770.34;;;14.89;83.57
9325;BME280;4701;51.566;6.776;2023-04-28T18:05:54;100780.00;;;14.87;84.04
9325;BME280;4701;51.566;6.776;2023-04-28T18:08:56;100783.03;;;14.85;84.26
9325;BME280;4701;51.566;6.776;2023-04-28T18:11:58;100778.94;;;14.83;84.34
9325;BME280;4701;51.566;6.776;2023-04-28T18:15:02;100792.13;;;14.81;84.51
9325;BME280;4701;51.566;6.776;2023-04-28T18:18:04;100790.00;;;14.77;84.58
9325;BME280;4701;51.566;6.776;2023-04-28T18:21:08;100790.28;;;14.76;85.02
9325;BME280;4701;51.566;6.776;2023-04-28T18:24:09;100791.69;;;14.73;85.02
9325;BME280;4701;51.566;6.776;2023-04-28T18:27:11;100796.34;;;14.73;84.81
9325;BME280;4701;51.566;6.776;2023-04-28T18:30:13;100796.13;;;14.69;84.91
9325;BME280;4701;51.566;6.776;2023-04-28T18:33:15;100792.88;;;14.67;84.85
9325;BME280;4701;51.566;6.776;2023-04-28T18:36:19;100795.06;;;14.65;84.77
9325;BME280;4701;51.566;6.776;2023-04-28T18:39:20;100794.25;;;14.65;85.00
9325;BME280;4701;51.566;6.776;2023-04-28T18:42:22;100800.03;;;14.63;85.14
9325;BME280;4701;51.566;6.776;2023-04-28T18:45:30;100803.09;;;14.62;85.21
9325;BME280;4701;51.566;6.776;2023-04-28T18:48:33;100803.38;;;14.60;85.35
9325;BME280;4701;51.566;6.776;2023-04-28T18:51:37;100805.59;;;14.58;85.05
9325;BME280;4701;51.566;6.776;2023-04-28T18:54:39;100806.41;;;14.59;85.24
9325;BME280;4701;51.566;6.776;2023-04-28T18:57:41;100804.22;;;14.56;85.64
9325;BME280;4701;51.566;6.776;2023-04-28T19:00:42;100806.97;;;14.56;85.25
9325;BME280;4701;51.566;6.776;2023-04-28T19:03:45;100805.34;;;14.55;85.84
9325;BME280;4701;51.566;6.776;2023-04-28T19:06:48;100812.25;;;14.52;85.87
9325;BME280;4701;51.566;6.776;2023-04-28T19:09:50;100809.50;;;14.52;86.13
9325;BME280;4701;51.566;6.776;2023-04-28T19:12:52;100818.03;;;14.51;85.99
9325;BME280;4701;51.566;6.776;2023-04-28T19:15:55;100821.88;;;14.50;86.07
9325;BME280;4701;51.566;6.776;2023-04-28T19:18:57;100815.84;;;14.48;86.42
9325;BME280;4701;51.566;6.776;2023-04-28T19:22:00;100822.75;;;14.45;86.11
9325;BME280;4701;51.566;6.776;2023-04-28T19:25:03;100830.16;;;14.45;86.46
9325;BME280;4701;51.566;6.776;2023-04-28T19:28:06;100831.25;;;14.44;86.63
9325;BME280;4701;51.566;6.776;2023-04-28T19:31:10;100827.16;;;14.41;86.68
9325;BME280;4701;51.566;6.776;2023-04-28T19:34:12;100831.84;;;14.41;87.06
9325;BME280;4701;51.566;6.776;2023-04-28T19:37:15;100828.56;;;14.38;86.77
9325;BME280;4701;51.566;6.776;2023-04-28T19:40:17;100839.81;;;14.37;87.05
9325;BME280;4701;51.566;6.776;2023-04-28T19:43:19;100836.53;;;14.35;87.19
9325;BME280;4701;51.566;6.776;2023-04-28T19:46:21;100834.88;;;14.34;87.27
9325;BME280;4701;51.566;6.776;2023-04-28T19:49:22;100845.03;;;14.33;87.26
9325;BME280;4701;51.566;6.776;2023-04-28T19:52:25;100836.28;;;14.31;87.73
9325;BME280;4701;51.566;6.776;2023-04-28T19:55:28;100844.78;;;14.30;87.73
9325;BME280;4701;51.566;6.776;2023-04-28T19:58:30;100842.34;;;14.28;87.39
9325;BME280;4701;51.566;6.776;2023-04-28T20:01:32;100843.19;;;14.29;87.84
9325;BME280;4701;51.566;6.776;2023-04-28T20:04:34;100860.72;;;14.28;88.15
9325;BME280;4701;51.566;6.776;2023-04-28T20:07:38;100853.59;;;14.27;87.66
9325;BME280;4701;51.566;6.776;2023-04-28T20:10:40;100859.38;;;14.25;88.01
9325;BME280;4701;51.566;6.776;2023-04-28T20:13:42;100860.47;;;14.24;88.18
9325;BME280;4701;51.566;6.776;2023-04-28T20:16:43;100849.50;;;14.24;88.48
9325;BME280;4701;51.566;6.776;2023-04-28T20:19:45;100861.28;;;14.25;88.90
9325;BME280;4701;51.566;6.776;2023-04-28T20:22:49;100853.63;;;14.22;89.16
9325;BME280;4701;51.566;6.776;2023-04-28T20:25:51;100862.44;;;14.19;89.72
9325;BME280;4701;51.566;6.776;2023-04-28T20:28:52;100860.00;;;14.17;89.91
9325;BME280;4701;51.566;6.776;2023-04-28T20:31:56;100861.38;;;14.15;90.28
9325;BME280;4701;51.566;6.776;2023-04-28T20:35:00;100870.97;;;14.12;90.39
9325;BME280;4701;51.566;6.776;2023-04-28T20:38:06;100862.53;;;14.09;90.58
9325;BME280;4701;51.566;6.776;2023-04-28T20:41:08;100870.22;;;14.07;91.18
9325;BME280;4701;51.566;6.776;2023-04-28T20:44:10;100870.78;;;14.03;90.88
9325;BME280;4701;51.566;6.776;2023-04-28T20:47:12;100871.09;;;14.02;91.48
9325;BME280;4701;51.566;6.776;2023-04-28T20:50:14;100871.38;;;14.00;91.63
9325;BME280;4701;51.566;6.776;2023-04-28T20:53:17;100870.28;;;13.96;91.89
9325;BME280;4701;51.566;6.776;2023-04-28T20:56:19;100868.97;;;13.94;91.92
9325;BME280;4701;51.566;6.776;2023-04-28T20:59:21;100869.25;;;13.92;91.80
